CheckWX is a tool to help pilots better visualize weather data.  It is not intended as a substitute for an official pre-flight weather briefing.

05:09:53 UTC

EGLL TAF
London Heathrow Airport
London, United Kingdom
TAF AMD EGLL 240256Z 2402/2506 13005KT 6000 NSC TEMPO 2402/2409 3000 BR PROB30 2405/2409 0300 FG VV/// BECMG 2409/2412 CAVOK BECMG 2418/2421 6000 PROB40 2421/2506 3000 BR

Feb-24@
02:00 UTC

Feb-24 @ 02:00 UTC

Feb-24@
09:00 UTC

Feb-24 @ 09:00 UTC

TAF AMD EGLL 240256Z 2402/2506 13005KT 6000 NSC
Wind
  • 130° at 5 KTS
Cloud Levels
  • No significant clouds

Feb-24@
02:00 UTC

Feb-24 @ 02:00 UTC

Feb-24@
09:00 UTC

Feb-24 @ 09:00 UTC

TEMPO 2402/2409 3000 BR

Temporary

Temporary Changes expected for less than half the time period

Conditions
Mist

Feb-24@
05:00 UTC

Feb-24 @ 05:00 UTC

Feb-24@
09:00 UTC

Feb-24 @ 09:00 UTC

PROB30 2405/2409 0300 FG VV///

Probable - 30% Likelihood

Probable - 30% Likelihood during this time.

Conditions
Fog

Feb-24@
09:00 UTC

Feb-24 @ 09:00 UTC

Feb-24@
18:00 UTC

Feb-24 @ 18:00 UTC

BECMG 2409/2412 CAVOK

Becoming

Becoming Conditions expected by Sun, Feb 24, 2019 @ 12:00 UTC

Wind
  • 130° at 5 KTS
Conditions
No significant weather
Cloud Levels
  • No significant clouds

Feb-24@
18:00 UTC

Feb-24 @ 18:00 UTC

Feb-25@
06:00 UTC

Feb-25 @ 06:00 UTC

BECMG 2418/2421 6000

Becoming

Becoming Conditions expected by Sun, Feb 24, 2019 @ 21:00 UTC

Wind
  • 130° at 5 KTS
Conditions
No significant weather
Cloud Levels
  • No significant clouds

Feb-24@
21:00 UTC

Feb-24 @ 21:00 UTC

Feb-25@
06:00 UTC

Feb-25 @ 06:00 UTC

PROB40 2421/2506 3000 BR

Probable - 40% Likelihood

Probable - 40% Likelihood during this time.

Conditions
Mist